Nearby METAR Reports

 

KOAK - Oakland, California, USA
Distance from station: SSW 6mi, 9km
Updated: Thu, 17-Oct-2019 1:53am PDT
Overcast
Overcast
 Wind from W
Wind: W 7 mph , 11 km/h
Temperature: 61°F , 16°C
Dew Point: 55°F , 13°C
Humidity: 83%
Barometer: 29.91 inHg , 1012.9 hPa
Clouds: Overcast
Visibility: 10 miles , 16 km
Cloud details: Overcast 900 ft
2019/10/17 08:53 KOAK 170853Z 27006KT 10SM OVC009 16/13 A2991 RMK AO2 SLP126 T01560133 56002
KHWD - Hayward, California, USA
Distance from station: SSE 8mi, 12km
Updated: Thu, 17-Oct-2019 1:54am PDT
Light rain, Overcast
Light rain, Overcast
 Wind from calm
Wind: Calm
Temperature: 59°F , 15°C
Dew Point: 55°F , 13°C
Humidity: 88%
Barometer: 29.90 inHg , 1012.5 hPa
Summary: Light rain
Clouds: Overcast
Visibility: 7 miles , 11 km
Cloud details: Overcast 1300 ft
2019/10/17 08:54 KHWD 170854Z AUTO 00000KT 7SM -RA OVC013 15/13 A2990 RMK AO2 RAB48 SLP132 P0000 60000 T01500128 57001
KSFO - San Francisco, California, USA
Distance from station: SW 15mi, 25km
Updated: Thu, 17-Oct-2019 1:56am PDT
Overcast
Overcast
 Wind from WSW
Wind: WSW 9 mph , 15 km/h
Temperature: 61°F , 16°C
Dew Point: 55°F , 13°C
Humidity: 83%
Barometer: 29.90 inHg , 1012.5 hPa
Clouds: Overcast
Visibility: 10 miles , 16 km
Cloud details: Few Clouds 1000 ft
Mostly cloudy 1100 ft
Overcast 2100 ft
2019/10/17 08:56 KSFO 170856Z 25008KT 10SM FEW010 BKN011 OVC021 16/13 A2990 RMK AO2 SLP123 T01610133 55003
 
KCCR - Concord, California, USA
Distance from station: NNE 17mi, 27km
Updated: Thu, 17-Oct-2019 1:53am PDT
Few Clouds
Few Clouds
 Wind from WSW
Wind: WSW 7 mph , 11 km/h
Temperature: 61°F , 16°C
Dew Point: 54°F , 12°C
Humidity: 77%
Barometer: 29.89 inHg , 1012.2 hPa
Clouds: Few Clouds
Visibility: 10 miles , 16 km
Cloud details: Few Clouds 4700 ft
2019/10/17 08:53 KCCR 170853Z AUTO 24006KT 10SM FEW047 16/12 A2989 RMK AO2 SLP106 T01610117 53000
KSQL - San Carlos Airpo, California, USA
Distance from station: SSW 18mi, 29km
Updated: Wed, 16-Oct-2019 8:58pm PDT
NOT Current
Mostly cloudy
Mostly cloudy
 Wind from calm
Wind: Calm
Temperature: 63°F , 17°C
Dew Point: 48°F , 9°C
Humidity: 59%
Barometer: 29.91 inHg , 1012.9 hPa
Clouds: Mostly cloudy
Visibility: 10 miles , 16 km
Cloud details: Few Clouds 1000 ft
Mostly cloudy 18000 ft
2019/10/17 03:58 KSQL 170358Z 00000KT 10SM FEW010 BKN180 17/09 A2991 RMK LAST
KLVK - Livermore, California, USA
Distance from station: ESE 20mi, 31km
Updated: Thu, 17-Oct-2019 1:53am PDT
Overcast
Overcast
 Wind from WNW
Wind: WNW 8 mph , 13 km/h
Temperature: 61°F , 16°C
Dew Point: 52°F , 11°C
Humidity: 72%
Barometer: 29.89 inHg , 1012.2 hPa
Clouds: Overcast
Visibility: 10 miles , 16 km
Cloud details: Overcast 1700 ft
2019/10/17 08:53 KLVK 170853Z AUTO 29007KT 10SM OVC017 16/11 A2989 RMK AO2 SLP117 T01560111 55002
 
KPAO - Palo Alto, California, USA
Distance from station: S 21mi, 34km
Updated: Wed, 16-Oct-2019 5:47pm PDT
NOT Current
Overcast
Overcast
 Wind from NW
Wind: NW 10 mph , 17 km/h
Temperature: 64°F , 18°C
Dew Point: 48°F , 9°C
Humidity: 56%
Barometer: 29.91 inHg , 1012.9 hPa
Clouds: Overcast
Visibility: 10 miles , 16 km
Cloud details: Overcast 12000 ft
2019/10/17 00:47 KPAO 170047Z 31009KT 10SM OVC120 18/09 A2991
KHAF - Half Moon Bay, California, USA
Distance from station: SW 25mi, 41km
Updated: Thu, 17-Oct-2019 2:00am PDT
Mist, Overcast
Mist, Overcast
 Wind from calm
Wind: Calm
Temperature: 55°F , 13°C
Dew Point: 55°F , 13°C
Humidity: 100%
Barometer: 29.92 inHg , 1013.2 hPa
Summary: Mist
Clouds: Overcast
Visibility: 1 mile , 2 km
Cloud details: Overcast 400 ft
2019/10/17 09:00 KHAF 170900Z AUTO 00000KT 1SM BR OVC004 13/13 A2992 RMK AO2
KNUQ - Moffett Nas/Mtn, California, USA
Distance from station: SSE 26mi, 42km
Updated: Thu, 17-Oct-2019 1:56am PDT

 
Barometer: 29.91 inHg , 1012.9 hPa
2019/10/17 08:56 KNUQ 170856Z A2991 RMK AO2 SLP132 55000 PWINO $
 
KAPC - Napa, California, USA
Distance from station: NNW 30mi, 49km
Updated: Thu, 17-Oct-2019 1:54am PDT
Mostly cloudy
Mostly cloudy
 Wind from W
Wind: W 13 mph , 20 km/h
Temperature: 57°F , 14°C
Dew Point: 55°F , 13°C
Humidity: 94%
Barometer: 29.88 inHg , 1011.9 hPa
Clouds: Mostly cloudy
Visibility: 10 miles , 16 km
Cloud details: Mostly cloudy 900 ft
2019/10/17 08:54 KAPC 170854Z AUTO 26011KT 10SM BKN009 14/13 A2988 RMK AO2 SLP109 T01440128 58001
KSJC - San Jose, California, USA
Distance from station: SSE 31mi, 50km
Updated: Thu, 17-Oct-2019 1:53am PDT
Overcast
Overcast
 Wind from SSW
Wind: SSW 3 mph , 6 km/h
Temperature: 61°F , 16°C
Dew Point: 52°F , 11°C
Humidity: 72%
Barometer: 29.90 inHg , 1012.5 hPa
Clouds: Overcast
Visibility: 10 miles , 16 km
Cloud details: Mostly cloudy 2600 ft
Overcast 3300 ft
2019/10/17 08:53 KSJC 170853Z AUTO 20003KT 10SM BKN026 OVC033 16/11 A2990 RMK AO2 SLP124 T01610111 55004
KDVO - Novato/Gnoss Fld, California, USA
Distance from station: NW 34mi, 54km
Updated: Thu, 17-Oct-2019 1:55am PDT
Partly cloudy
Partly cloudy
 Wind from calm
Wind: Calm
Temperature: 57°F , 14°C
Dew Point: 55°F , 13°C
Humidity: 94%
Barometer: 29.89 inHg , 1012.2 hPa
Clouds: Partly cloudy
Visibility: 10 miles , 16 km
Cloud details: Few Clouds 3000 ft
Partly cloudy 3600 ft
2019/10/17 08:55 KDVO 170855Z AUTO 00000KT 10SM FEW030 SCT036 14/13 A2989 RMK AO2
 
KRHV - San Jose/Reid, California, USA
Distance from station: SSE 37mi, 59km
Updated: Wed, 16-Oct-2019 9:52pm PDT
NOT Current
Overcast
Overcast
 Wind from calm
Wind: Calm
Temperature: 61°F , 16°C
Dew Point: 48°F , 9°C
Humidity: 63%
Barometer: 29.91 inHg , 1012.9 hPa
Clouds: Overcast
Visibility: 10 miles , 16 km
Cloud details: Overcast 10000 ft
2019/10/17 04:52 KRHV 170452Z 00000KT 10SM OVC100 16/09 A2991 RMK LAST
KSUU - Travis Afb/Fairf, California, USA
Distance from station: NNE 37mi, 59km
Updated: Thu, 17-Oct-2019 1:58am PDT
Few Clouds
Few Clouds
 Wind from SW
Wind: SW 14 mph , 22 km/h
Temperature: 59°F , 15°C
Dew Point: 54°F , 12°C
Humidity: 82%
Barometer: 29.86 inHg , 1011.2 hPa
Clouds: Few Clouds
Visibility: 10 miles , 16 km
Cloud details: Few Clouds 2200 ft
2019/10/17 08:58 KSUU 170858Z AUTO 23012KT 10SM FEW022 15/12 A2986 RMK AO2 PK WND 25026/13 SLP118 T01470124 53003 $
KO69 - Petaluma, California, USA
Distance from station: NW 41mi, 66km
Updated: Thu, 17-Oct-2019 1:55am PDT
Overcast
Overcast
 Wind from WNW
Wind: WNW 5 mph , 7 km/h
Temperature: 57°F , 14°C
Dew Point: 57°F , 14°C
Humidity: 100%
Barometer: 29.90 inHg , 1012.5 hPa
Clouds: Overcast
Visibility: 10 miles , 16 km
Cloud details: Overcast 600 ft
2019/10/17 08:55 KO69 170855Z AUTO 29004KT 10SM OVC006 14/14 A2990 RMK A01
 
KVCB - Vacaville, California, USA
Distance from station: NNE 44mi, 71km
Updated: Thu, 17-Oct-2019 1:53am PDT
Few Clouds
Few Clouds
 Wind from SW
Wind: SW 6 mph , 9 km/h
Temperature: 61°F , 16°C
Dew Point: 55°F , 13°C
Humidity: 83%
Barometer: 29.86 inHg , 1011.2 hPa
Clouds: Few Clouds
Visibility: 10 miles , 16 km
Cloud details: Few Clouds 12000 ft
2019/10/17 08:53 KVCB 170853Z AUTO 23005KT 10SM FEW120 16/13 A2986 RMK AO2 SLP112 T01560128 53005